< < Back
Terminal Aerodrome Forecast


Current Version              Previous Versions:   1  2  3  4  5  6  7  8  9  

Terminal Aerodrome Forecast

547
FTUS42 KFFC 202300
TAFMCN
TAF
KMCN 202332Z 2100/2124 29007KT P6SM VCSH SCT045 BKN100
     FM210700 VRB03KT 3SM BR SCT006
     FM211400 24005KT P6SM SCT025
     FM211700 26008KT P6SM SCT045=

Latest METAR

086
SAUS80 KWBC 211000 RRB
MTRMCN
METAR KMCN 210953Z AUTO 00000KT 10SM CLR 21/21 A3008 RMK AO2 SLP181
T02110211 TSNO


USA.gov is the U.S. government's official web portal to all federal, state and local government web resources and services.